Time;durP1;ratioP1;P1;durP2;ratioP2;P2;SDS_P1;SDS_P2;PMS_P1;PMS_P2;Temp;Humidity;BMP_temperature;BMP_pressure;BME280_temperature;BME280_humidity;BME280_pressure;Samples;Min_cycle;Max_cycle;Signal;HPM_P1;HPM_P2
2023/03/16 00:01:37;;;;;;;;;;;25.40;99.90;;;;;;4901350;29;20010;-49
2023/03/16 00:04:03;;;;;;;;;;;25.40;99.90;;;;;;4907665;29;19918;-49
2023/03/16 00:06:28;;;;;;;;;;;25.40;99.90;;;;;;4902122;29;20268;-49
2023/03/16 00:08:57;;;;;;;;;;;25.40;99.90;;;;;;4902071;29;19955;-49
2023/03/16 00:11:24;;;;;;;;;;;25.30;99.90;;;;;;4902795;29;19915;-49
2023/03/16 00:13:50;;;;;;;;;;;25.40;99.90;;;;;;4904526;29;19919;-50
2023/03/16 00:16:15;;;;;;;;;;;25.30;99.90;;;;;;4901825;29;19907;-48
2023/03/16 00:18:41;;;;;;;;;;;25.30;99.90;;;;;;4902824;29;19908;-49
2023/03/16 00:21:07;;;;;;;;;;;25.30;99.90;;;;;;4907306;29;19934;-49
2023/03/16 00:23:34;;;;;;;;;;;25.20;99.90;;;;;;4914399;29;20001;-49
2023/03/16 00:26:02;;;;;;;;;;;25.20;99.90;;;;;;4900369;29;19915;-49
2023/03/16 00:28:29;;;;;;;;;;;25.20;99.90;;;;;;4901127;29;19907;-49
2023/03/16 00:30:57;;;;;;;;;;;25.20;99.90;;;;;;4902440;29;20487;-49
2023/03/16 00:33:23;;;;;;;;;;;25.20;99.90;;;;;;4911898;29;19908;-50
2023/03/16 00:35:50;;;;;;;;;;;25.10;99.90;;;;;;4902672;29;19914;-50
2023/03/16 00:38:16;;;;;;;;;;;25.10;99.90;;;;;;4906888;29;20296;-50
2023/03/16 00:40:42;;;;;;;;;;;25.10;99.90;;;;;;4905353;29;20010;-50
2023/03/16 00:43:08;;;;;;;;;;;25.10;99.90;;;;;;4918886;29;19961;-50
2023/03/16 00:45:33;;;;;;;;;;;25.00;99.90;;;;;;4933817;29;20352;-50
2023/03/16 00:48:00;;;;;;;;;;;25.00;99.90;;;;;;4919151;29;19907;-50
2023/03/16 00:50:26;;;;;;;;;;;25.00;99.90;;;;;;4912569;29;19925;-50
2023/03/16 00:52:52;;;;;;;;;;;25.00;99.90;;;;;;4912934;29;19990;-50
2023/03/16 00:55:18;;;;;;;;;;;25.00;99.90;;;;;;4919045;29;20282;-50
2023/03/16 00:57:44;;;;;;;;;;;25.00;99.90;;;;;;4919025;29;19917;-50
2023/03/16 01:00:15;;;;;;;;;;;25.00;99.90;;;;;;4930375;23;19927;-56
2023/03/16 01:02:44;;;;;;;;;;;25.00;99.90;;;;;;4918776;29;19907;-57
2023/03/16 01:05:09;;;;;;;;;;;25.00;99.90;;;;;;4918870;29;20009;-57
2023/03/16 01:07:35;;;;;;;;;;;25.00;99.90;;;;;;4918679;29;20346;-56
2023/03/16 01:10:01;;;;;;;;;;;25.00;99.90;;;;;;4918270;29;20272;-57
2023/03/16 01:12:27;;;;;;;;;;;25.00;99.90;;;;;;4918303;29;19955;-56
2023/03/16 01:14:54;;;;;;;;;;;25.00;99.90;;;;;;4917943;29;19950;-55
2023/03/16 01:17:21;;;;;;;;;;;24.90;99.90;;;;;;4918646;29;19954;-55
2023/03/16 01:19:46;;;;;;;;;;;24.90;99.90;;;;;;4918492;29;20107;-56
2023/03/16 01:22:12;;;;;;;;;;;24.90;99.90;;;;;;4918584;29;19907;-57
2023/03/16 01:24:39;;;;;;;;;;;24.90;99.90;;;;;;4918494;29;19914;-56
2023/03/16 01:27:06;;;;;;;;;;;24.90;99.90;;;;;;4918538;29;19954;-55
2023/03/16 01:29:32;;;;;;;;;;;24.90;99.90;;;;;;4918118;29;19913;-56
2023/03/16 01:31:58;;;;;;;;;;;24.90;99.90;;;;;;4914054;29;19915;-56
2023/03/16 01:34:23;;;;;;;;;;;24.90;99.90;;;;;;4924981;29;20352;-56
2023/03/16 01:36:49;;;;;;;;;;;24.90;99.90;;;;;;4905895;29;19910;-55
2023/03/16 01:39:15;;;;;;;;;;;24.80;99.90;;;;;;4918236;29;19998;-57
2023/03/16 01:41:41;;;;;;;;;;;24.90;99.90;;;;;;4918237;29;19998;-56
2023/03/16 01:44:34;;;;;;;;;;;24.80;99.90;;;;;;4918212;29;19907;-55
2023/03/16 01:46:59;;;;;;;;;;;24.80;99.90;;;;;;4917338;29;20347;-56
2023/03/16 01:49:31;;;;;;;;;;;24.80;99.90;;;;;;4918329;29;19989;-56
2023/03/16 01:51:57;;;;;;;;;;;24.80;99.90;;;;;;4918321;29;19914;-54
2023/03/16 01:54:22;;;;;;;;;;;24.80;99.90;;;;;;4918146;29;19935;-55
2023/03/16 01:57:08;;;;;;;;;;;24.80;99.90;;;;;;4918055;29;20010;-55
2023/03/16 01:59:42;;;;;;;;;;;24.80;99.90;;;;;;4917921;29;19935;-55
2023/03/16 02:02:08;;;;;;;;;;;24.70;99.90;;;;;;4917959;29;19911;-55
2023/03/16 02:04:52;;;;;;;;;;;24.80;99.90;;;;;;4917860;29;19954;-61
2023/03/16 02:07:19;;;;;;;;;;;24.70;99.90;;;;;;4926778;29;20223;-55
2023/03/16 02:09:47;;;;;;;;;;;24.70;99.90;;;;;;4920920;29;19915;-55
2023/03/16 02:12:17;;;;;;;;;;;24.70;99.90;;;;;;4917600;29;19907;-56
2023/03/16 02:14:47;;;;;;;;;;;24.70;99.90;;;;;;4917513;29;20006;-55
2023/03/16 02:17:13;;;;;;;;;;;24.70;99.90;;;;;;4917663;29;19963;-56
2023/03/16 02:19:43;;;;;;;;;;;24.70;99.90;;;;;;4917512;29;20375;-55
2023/03/16 02:22:09;;;;;;;;;;;24.70;99.90;;;;;;4917493;29;20414;-55
2023/03/16 02:24:35;;;;;;;;;;;24.70;99.90;;;;;;4917492;29;20054;-55
2023/03/16 02:27:06;;;;;;;;;;;24.70;99.90;;;;;;4916886;29;20286;-54
2023/03/16 02:29:52;;;;;;;;;;;24.70;99.90;;;;;;4917253;29;20280;-56
2023/03/16 02:32:18;;;;;;;;;;;24.70;99.90;;;;;;4917245;29;20252;-57
2023/03/16 02:34:44;;;;;;;;;;;24.70;99.90;;;;;;4917154;29;20428;-56
2023/03/16 02:37:10;;;;;;;;;;;24.60;99.90;;;;;;4917362;29;19998;-57
2023/03/16 02:39:36;;;;;;;;;;;24.60;99.90;;;;;;4917105;29;19911;-57
2023/03/16 02:42:03;;;;;;;;;;;24.60;99.90;;;;;;4917261;29;19950;-56
2023/03/16 02:44:33;;;;;;;;;;;24.60;99.90;;;;;;4917211;29;20390;-56
2023/03/16 02:47:02;;;;;;;;;;;24.60;99.90;;;;;;4917292;29;19958;-56
2023/03/16 02:49:36;;;;;;;;;;;24.60;99.90;;;;;;4917045;29;20398;-55
2023/03/16 02:52:03;;;;;;;;;;;24.60;99.90;;;;;;4917245;29;19962;-56
2023/03/16 02:54:28;;;;;;;;;;;24.60;99.90;;;;;;4916919;29;19911;-55
2023/03/16 02:56:54;;;;;;;;;;;24.60;99.90;;;;;;4916918;29;19915;-55
2023/03/16 02:59:20;;;;;;;;;;;24.50;99.90;;;;;;4917218;29;19926;-56
2023/03/16 03:01:46;;;;;;;;;;;24.50;99.90;;;;;;4916735;29;19918;-55
2023/03/16 03:04:12;;;;;;;;;;;24.50;99.90;;;;;;4916676;29;20344;-56
2023/03/16 03:06:37;;;;;;;;;;;24.50;99.90;;;;;;4917022;29;19911;-54
2023/03/16 03:09:04;;;;;;;;;;;24.50;99.90;;;;;;4916690;29;19930;-56
2023/03/16 03:11:30;;;;;;;;;;;24.50;99.90;;;;;;4931324;29;20302;-57
2023/03/16 03:13:56;;;;;;;;;;;24.50;99.90;;;;;;4916652;29;20001;-55
2023/03/16 03:16:21;;;;;;;;;;;24.50;99.90;;;;;;4916788;29;19978;-56
2023/03/16 03:18:47;;;;;;;;;;;24.50;99.90;;;;;;4916343;29;19907;-56
2023/03/16 03:21:13;;;;;;;;;;;24.40;99.90;;;;;;4912201;29;19911;-57
2023/03/16 03:23:38;;;;;;;;;;;24.50;99.90;;;;;;4909185;29;19910;-57
2023/03/16 03:26:04;;;;;;;;;;;24.50;99.90;;;;;;4943748;29;19954;-56
2023/03/16 03:28:30;;;;;;;;;;;24.40;99.90;;;;;;4916533;29;19962;-56
2023/03/16 03:30:56;;;;;;;;;;;24.40;99.90;;;;;;4916520;29;19919;-56
2023/03/16 03:33:21;;;;;;;;;;;24.40;99.90;;;;;;4916506;29;19907;-57
2023/03/16 03:35:52;;;;;;;;;;;24.40;99.90;;;;;;4916329;29;19907;-57
2023/03/16 03:38:18;;;;;;;;;;;24.40;99.90;;;;;;4916074;29;19954;-56
2023/03/16 03:40:43;;;;;;;;;;;24.40;99.90;;;;;;4916249;29;19997;-57
2023/03/16 03:43:09;;;;;;;;;;;24.40;99.90;;;;;;4916158;29;20033;-57
2023/03/16 03:45:34;;;;;;;;;;;24.30;99.90;;;;;;4916401;29;20375;-56
2023/03/16 03:48:00;;;;;;;;;;;24.30;99.90;;;;;;4916177;29;19907;-56
2023/03/16 03:50:25;;;;;;;;;;;24.30;99.90;;;;;;4916158;29;19937;-56
2023/03/16 03:52:51;;;;;;;;;;;24.30;99.90;;;;;;4916153;29;19914;-56
2023/03/16 03:55:17;;;;;;;;;;;24.30;99.90;;;;;;4916123;29;19907;-57
2023/03/16 03:57:42;;;;;;;;;;;24.30;99.90;;;;;;4916245;29;20005;-56
2023/03/16 04:00:12;;;;;;;;;;;24.30;99.90;;;;;;4930791;23;19923;-48
2023/03/16 04:02:38;;;;;;;;;;;24.30;99.90;;;;;;4935272;29;19911;-48
2023/03/16 04:05:05;;;;;;;;;;;24.30;99.90;;;;;;4935439;29;19911;-49
2023/03/16 04:07:30;;;;;;;;;;;24.20;99.90;;;;;;4935114;29;19997;-49
2023/03/16 04:09:56;;;;;;;;;;;24.20;99.90;;;;;;4949737;29;19907;-48
2023/03/16 04:12:22;;;;;;;;;;;24.20;99.90;;;;;;4933736;29;19907;-49
2023/03/16 04:14:47;;;;;;;;;;;24.20;99.90;;;;;;4934827;29;19914;-49
2023/03/16 04:17:13;;;;;;;;;;;24.20;99.90;;;;;;4935109;29;19907;-49
2023/03/16 04:19:38;;;;;;;;;;;24.20;99.90;;;;;;4930774;29;19907;-49
2023/03/16 04:22:05;;;;;;;;;;;24.20;99.90;;;;;;4935287;29;19906;-50
2023/03/16 04:24:33;;;;;;;;;;;24.20;99.90;;;;;;4946391;29;20307;-49
2023/03/16 04:26:59;;;;;;;;;;;24.20;99.90;;;;;;4935799;29;19960;-49
2023/03/16 04:29:25;;;;;;;;;;;24.10;99.90;;;;;;4934759;29;19907;-49
2023/03/16 04:31:52;;;;;;;;;;;24.20;99.90;;;;;;4934729;29;20366;-49
2023/03/16 04:34:18;;;;;;;;;;;24.10;99.90;;;;;;4934891;29;20381;-49
2023/03/16 04:36:44;;;;;;;;;;;24.10;99.90;;;;;;4934686;29;19907;-49
2023/03/16 04:39:09;;;;;;;;;;;24.10;99.90;;;;;;4930619;29;19914;-49
2023/03/16 04:41:35;;;;;;;;;;;24.10;99.90;;;;;;4931229;29;20311;-49
2023/03/16 04:44:01;;;;;;;;;;;24.10;99.90;;;;;;4943601;29;20005;-49
2023/03/16 04:46:28;;;;;;;;;;;24.10;99.90;;;;;;4938399;29;19914;-48
2023/03/16 04:48:57;;;;;;;;;;;24.10;99.90;;;;;;4934820;29;19915;-48
2023/03/16 04:51:23;;;;;;;;;;;24.10;99.90;;;;;;4951353;29;19919;-48
2023/03/16 04:53:48;;;;;;;;;;;24.10;99.90;;;;;;4938140;29;19907;-48
2023/03/16 04:56:17;;;;;;;;;;;24.00;99.90;;;;;;4952600;29;20263;-48
2023/03/16 04:58:46;;;;;;;;;;;24.00;99.90;;;;;;4938030;29;19914;-48
2023/03/16 05:01:12;;;;;;;;;;;24.00;99.90;;;;;;4939128;29;19922;-48
2023/03/16 05:03:38;;;;;;;;;;;24.00;99.90;;;;;;4950416;29;19934;-48
2023/03/16 05:06:04;;;;;;;;;;;24.00;99.90;;;;;;4937873;29;19906;-49
2023/03/16 05:08:29;;;;;;;;;;;24.00;99.90;;;;;;4943128;29;19907;-49
2023/03/16 05:10:56;;;;;;;;;;;24.00;99.90;;;;;;4945066;29;19926;-48
2023/03/16 05:13:21;;;;;;;;;;;24.00;99.90;;;;;;4937764;29;19923;-49
2023/03/16 05:15:47;;;;;;;;;;;23.90;99.90;;;;;;4937719;29;19910;-48
2023/03/16 05:18:12;;;;;;;;;;;23.90;99.90;;;;;;4937556;29;19914;-48
2023/03/16 05:20:38;;;;;;;;;;;23.90;99.90;;;;;;4937849;29;19907;-48
2023/03/16 05:23:04;;;;;;;;;;;23.90;99.90;;;;;;4937518;29;19906;-48
2023/03/16 05:25:29;;;;;;;;;;;23.90;99.90;;;;;;4952248;29;19939;-49
2023/03/16 05:27:56;;;;;;;;;;;23.90;99.90;;;;;;4937395;29;19911;-48
2023/03/16 05:30:21;;;;;;;;;;;23.90;99.90;;;;;;4937401;29;20318;-49
2023/03/16 05:32:47;;;;;;;;;;;23.90;99.90;;;;;;4937495;29;19906;-49
2023/03/16 05:35:13;;;;;;;;;;;23.90;99.90;;;;;;4937514;29;19907;-49
2023/03/16 05:37:39;;;;;;;;;;;23.90;99.90;;;;;;4933154;29;20275;-48
2023/03/16 05:40:13;;;;;;;;;;;23.90;99.90;;;;;;4936688;29;20480;-48
2023/03/16 05:42:39;;;;;;;;;;;23.90;99.90;;;;;;4937373;29;19906;-48
2023/03/16 05:45:05;;;;;;;;;;;23.90;99.90;;;;;;4937117;29;19958;-48
2023/03/16 05:47:30;;;;;;;;;;;23.90;99.90;;;;;;4937212;29;19999;-48
2023/03/16 05:49:56;;;;;;;;;;;23.90;99.90;;;;;;4936910;29;19938;-48
2023/03/16 05:52:24;;;;;;;;;;;23.80;99.90;;;;;;4937086;29;20376;-48
2023/03/16 05:54:49;;;;;;;;;;;23.80;99.90;;;;;;4936830;29;19921;-48
2023/03/16 05:57:15;;;;;;;;;;;23.80;99.90;;;;;;4937005;29;20273;-48
2023/03/16 05:59:41;;;;;;;;;;;23.80;99.90;;;;;;4936806;29;19954;-49
2023/03/16 06:02:09;;;;;;;;;;;23.80;99.90;;;;;;4937019;29;19906;-49
2023/03/16 06:04:35;;;;;;;;;;;23.80;99.90;;;;;;4951442;29;19915;-49
2023/03/16 06:07:01;;;;;;;;;;;23.80;99.90;;;;;;4936823;29;19914;-49
2023/03/16 06:09:26;;;;;;;;;;;23.80;99.90;;;;;;4936580;29;19910;-49
2023/03/16 06:11:52;;;;;;;;;;;23.70;99.90;;;;;;4936845;29;19918;-49
2023/03/16 06:14:18;;;;;;;;;;;23.80;99.90;;;;;;4936748;29;19907;-49
2023/03/16 06:16:43;;;;;;;;;;;23.80;99.90;;;;;;4936786;29;19950;-49
2023/03/16 06:19:09;;;;;;;;;;;23.80;99.90;;;;;;4936718;29;20346;-49
2023/03/16 06:21:35;;;;;;;;;;;23.70;99.90;;;;;;4940416;29;20380;-49
2023/03/16 06:24:01;;;;;;;;;;;23.70;99.90;;;;;;4945463;29;19913;-49
2023/03/16 06:26:26;;;;;;;;;;;23.70;99.90;;;;;;4936322;29;19913;-49
2023/03/16 06:28:52;;;;;;;;;;;23.70;99.90;;;;;;4936506;29;19906;-50
2023/03/16 06:31:18;;;;;;;;;;;23.70;99.90;;;;;;4936328;29;20370;-49
2023/03/16 06:33:43;;;;;;;;;;;23.70;99.90;;;;;;4936523;29;20005;-49
2023/03/16 06:36:09;;;;;;;;;;;23.70;99.90;;;;;;4936242;29;19914;-49
2023/03/16 06:38:35;;;;;;;;;;;23.70;99.90;;;;;;4936023;29;20411;-49
2023/03/16 06:41:00;;;;;;;;;;;23.70;99.90;;;;;;4945976;29;19925;-49
2023/03/16 06:43:26;;;;;;;;;;;23.70;99.90;;;;;;4938814;29;19914;-49
2023/03/16 06:45:52;;;;;;;;;;;23.70;99.90;;;;;;4935984;29;19906;-49
2023/03/16 06:48:17;;;;;;;;;;;23.70;99.90;;;;;;4936139;29;19907;-48
2023/03/16 06:50:46;;;;;;;;;;;23.70;99.90;;;;;;4935922;29;19938;-48
2023/03/16 06:53:11;;;;;;;;;;;23.70;99.90;;;;;;4937947;29;19942;-49
2023/03/16 06:55:37;;;;;;;;;;;23.70;99.90;;;;;;4946559;29;20397;-48
2023/03/16 06:58:02;;;;;;;;;;;23.70;99.90;;;;;;4935848;29;19907;-49
2023/03/16 07:00:29;;;;;;;;;;;23.70;99.90;;;;;;4942640;29;19918;-48
2023/03/16 07:02:55;;;;;;;;;;;23.70;99.90;;;;;;4941363;29;19962;-49
2023/03/16 07:05:20;;;;;;;;;;;23.70;99.90;;;;;;4935720;29;19906;-49
2023/03/16 07:07:46;;;;;;;;;;;23.70;99.90;;;;;;4935780;29;20404;-49
2023/03/16 07:10:13;;;;;;;;;;;23.70;99.90;;;;;;4935511;29;19915;-49
2023/03/16 07:12:39;;;;;;;;;;;23.70;99.90;;;;;;4935178;29;19914;-49
2023/03/16 07:15:05;;;;;;;;;;;23.70;99.90;;;;;;4935699;29;19994;-49
2023/03/16 07:17:31;;;;;;;;;;;23.70;99.90;;;;;;4935532;29;20346;-49
2023/03/16 07:19:56;;;;;;;;;;;23.70;99.90;;;;;;4938026;29;20021;-49
2023/03/16 07:22:22;;;;;;;;;;;23.70;99.90;;;;;;4945426;29;20410;-49
2023/03/16 07:24:54;;;;;;;;;;;23.70;99.90;;;;;;4935426;29;20362;-50
2023/03/16 07:27:22;;;;;;;;;;;23.70;99.90;;;;;;4935458;29;19953;-50
2023/03/16 07:29:48;;;;;;;;;;;23.70;99.90;;;;;;4935350;29;20031;-49
2023/03/16 07:32:13;;;;;;;;;;;23.80;99.90;;;;;;4935257;29;20038;-50
2023/03/16 07:34:40;;;;;;;;;;;23.80;99.90;;;;;;4935418;29;19914;-50
2023/03/16 07:37:07;;;;;;;;;;;23.80;99.90;;;;;;4935310;29;19914;-50
2023/03/16 07:39:33;;;;;;;;;;;23.80;99.90;;;;;;4945503;29;19914;-50
2023/03/16 07:42:00;;;;;;;;;;;23.80;99.90;;;;;;4937712;29;19917;-49
2023/03/16 07:44:26;;;;;;;;;;;23.80;99.90;;;;;;4935224;29;19957;-50
2023/03/16 07:46:52;;;;;;;;;;;23.90;99.90;;;;;;4935343;29;19906;-50
2023/03/16 07:49:17;;;;;;;;;;;23.90;99.90;;;;;;4935452;29;20334;-50
2023/03/16 07:51:43;;;;;;;;;;;23.90;99.90;;;;;;4935087;29;19915;-50
2023/03/16 07:54:09;;;;;;;;;;;23.90;99.90;;;;;;4935367;29;19962;-49
2023/03/16 07:56:35;;;;;;;;;;;23.90;99.90;;;;;;4934985;29;19906;-50
2023/03/16 07:59:00;;;;;;;;;;;23.90;99.90;;;;;;4935348;29;19911;-50
2023/03/16 08:01:27;;;;;;;;;;;23.90;99.90;;;;;;4930904;29;19926;-50
2023/03/16 08:03:52;;;;;;;;;;;23.90;99.90;;;;;;4934578;29;19949;-50
2023/03/16 08:06:18;;;;;;;;;;;23.90;99.90;;;;;;4931060;29;19911;-50
2023/03/16 08:08:44;;;;;;;;;;;24.00;99.90;;;;;;4932750;29;19910;-48
2023/03/16 08:11:10;;;;;;;;;;;24.00;99.90;;;;;;4935066;29;20393;-48
2023/03/16 08:13:35;;;;;;;;;;;24.00;99.90;;;;;;4934902;29;20009;-49
2023/03/16 08:16:01;;;;;;;;;;;24.00;99.90;;;;;;4935026;29;20414;-49
2023/03/16 08:18:28;;;;;;;;;;;24.00;99.90;;;;;;4934906;29;20294;-48
2023/03/16 08:20:55;;;;;;;;;;;24.10;99.90;;;;;;4935077;29;19910;-50
2023/03/16 08:23:22;;;;;;;;;;;24.10;99.90;;;;;;4930781;29;19942;-49
2023/03/16 08:25:52;;;;;;;;;;;24.10;99.90;;;;;;4936508;29;19913;-49
2023/03/16 08:28:20;;;;;;;;;;;24.10;99.90;;;;;;4938407;29;19997;-49
2023/03/16 08:30:46;;;;;;;;;;;24.10;99.90;;;;;;4945846;29;20396;-49
2023/03/16 08:33:12;;;;;;;;;;;24.10;99.90;;;;;;4943609;28;20330;-49
2023/03/16 08:35:41;;;;;;;;;;;24.10;99.90;;;;;;4938112;29;19907;-50
2023/03/16 08:38:07;;;;;;;;;;;24.20;99.90;;;;;;4934104;29;20359;-50
2023/03/16 08:40:33;;;;;;;;;;;24.20;99.90;;;;;;4925593;29;20359;-50
2023/03/16 08:42:59;;;;;;;;;;;24.20;99.90;;;;;;4938294;29;19907;-50
2023/03/16 08:45:25;;;;;;;;;;;24.20;99.90;;;;;;4938191;29;19914;-50
2023/03/16 08:47:51;;;;;;;;;;;24.20;99.90;;;;;;4938385;29;19907;-50
2023/03/16 08:50:18;;;;;;;;;;;24.20;99.90;;;;;;4937773;29;19930;-48
2023/03/16 08:52:44;;;;;;;;;;;24.20;99.90;;;;;;4938075;29;19910;-49
2023/03/16 08:55:10;;;;;;;;;;;24.30;99.90;;;;;;4937915;29;20054;-49
2023/03/16 08:57:36;;;;;;;;;;;24.30;99.90;;;;;;4937996;29;19907;-52
2023/03/16 09:00:11;;;;;;;;;;;24.30;99.90;;;;;;4937822;29;19918;-49
2023/03/16 09:02:37;;;;;;;;;;;24.30;99.90;;;;;;4937913;29;19906;-51
2023/03/16 09:05:03;;;;;;;;;;;24.30;99.90;;;;;;4952676;29;20384;-49
2023/03/16 09:07:29;;;;;;;;;;;24.30;99.90;;;;;;4937738;29;20004;-48
2023/03/16 09:09:55;;;;;;;;;;;24.30;99.90;;;;;;4936339;29;19915;-48
2023/03/16 09:12:21;;;;;;;;;;;24.30;99.90;;;;;;4937641;29;20350;-49
2023/03/16 09:14:47;;;;;;;;;;;24.30;99.90;;;;;;4937477;29;19970;-51
2023/03/16 09:17:13;;;;;;;;;;;24.30;99.90;;;;;;4937542;29;20009;-48
2023/03/16 09:19:39;;;;;;;;;;;24.30;99.90;;;;;;4937413;29;19946;-51
2023/03/16 09:22:05;;;;;;;;;;;24.40;99.90;;;;;;4932612;29;19911;-49
2023/03/16 09:24:31;;;;;;;;;;;24.40;99.90;;;;;;4933219;29;19907;-48
2023/03/16 09:26:57;;;;;;;;;;;24.40;99.90;;;;;;4937186;29;19914;-49
2023/03/16 09:29:23;;;;;;;;;;;24.40;99.90;;;;;;4934658;29;19915;-49
2023/03/16 09:31:49;;;;;;;;;;;24.40;99.90;;;;;;4937201;29;19918;-49
2023/03/16 09:34:15;;;;;;;;;;;24.40;99.90;;;;;;4928292;29;19914;-48
2023/03/16 09:36:41;;;;;;;;;;;24.40;99.90;;;;;;4928583;29;19911;-48
2023/03/16 09:39:06;;;;;;;;;;;24.50;99.90;;;;;;4919990;29;19907;-48
2023/03/16 09:41:53;;;;;;;;;;;24.50;99.90;;;;;;4918906;29;19914;-49
2023/03/16 09:44:25;;;;;;;;;;;24.50;99.90;;;;;;4923269;29;19915;-49
2023/03/16 09:46:51;;;;;;;;;;;24.50;99.90;;;;;;4921299;29;19917;-48
2023/03/16 09:49:19;;;;;;;;;;;24.50;99.90;;;;;;4921719;29;19915;-49
2023/03/16 09:51:51;;;;;;;;;;;24.50;99.90;;;;;;4922326;29;19930;-49
2023/03/16 09:54:26;;;;;;;;;;;24.50;99.90;;;;;;4926208;29;20343;-49
2023/03/16 09:56:53;;;;;;;;;;;24.60;99.90;;;;;;4921129;29;19915;-49
2023/03/16 09:59:21;;;;;;;;;;;24.60;99.90;;;;;;4933926;29;19965;-49
2023/03/16 10:02:05;;;;;;;;;;;24.60;99.90;;;;;;4936518;29;19926;-49
2023/03/16 10:04:36;;;;;;;;;;;24.60;99.90;;;;;;4936566;29;19906;-49
2023/03/16 10:07:11;;;;;;;;;;;24.70;99.90;;;;;;4936670;29;20001;-49
2023/03/16 10:09:49;;;;;;;;;;;24.70;99.90;;;;;;4936664;29;19907;-49
2023/03/16 10:12:15;;;;;;;;;;;24.70;99.90;;;;;;4936603;29;19984;-49
2023/03/16 10:15:07;;;;;;;;;;;24.70;99.90;;;;;;4936475;29;19950;-49
2023/03/16 10:17:55;;;;;;;;;;;24.80;99.90;;;;;;4936491;29;20275;-49
2023/03/16 10:20:22;;;;;;;;;;;24.80;99.90;;;;;;4936556;29;19914;-49
2023/03/16 10:22:49;;;;;;;;;;;24.80;99.90;;;;;;4936484;29;19910;-49
2023/03/16 10:25:30;;;;;;;;;;;24.80;99.90;;;;;;4936404;29;19906;-49
2023/03/16 10:27:56;;;;;;;;;;;24.90;99.90;;;;;;4936618;29;19911;-49
2023/03/16 10:30:21;;;;;;;;;;;24.90;99.90;;;;;;4931775;29;19918;-49
2023/03/16 10:32:48;;;;;;;;;;;24.90;99.90;;;;;;4927875;29;19914;-49
2023/03/16 10:35:30;;;;;;;;;;;24.90;99.90;;;;;;4936224;29;19922;-49
2023/03/16 10:37:56;;;;;;;;;;;25.00;99.90;;;;;;4950940;29;20413;-49
2023/03/16 10:40:22;;;;;;;;;;;25.00;99.90;;;;;;4935992;29;19911;-49
2023/03/16 10:42:48;;;;;;;;;;;25.00;99.90;;;;;;4936138;29;19962;-49
2023/03/16 10:45:24;;;;;;;;;;;25.00;99.90;;;;;;4935915;29;19907;-50
2023/03/16 10:47:49;;;;;;;;;;;25.10;99.90;;;;;;4935404;29;19961;-48
2023/03/16 10:50:15;;;;;;;;;;;25.00;99.90;;;;;;4935859;29;20366;-49
2023/03/16 10:52:46;;;;;;;;;;;25.10;99.90;;;;;;4935785;29;19961;-49
2023/03/16 10:55:20;;;;;;;;;;;25.10;99.90;;;;;;4948552;29;19907;-49
2023/03/16 10:57:55;;;;;;;;;;;25.10;99.90;;;;;;4935767;29;19954;-49
2023/03/16 11:00:23;;;;;;;;;;;25.10;99.90;;;;;;4935401;29;19919;-50
2023/03/16 11:02:50;;;;;;;;;;;25.20;99.90;;;;;;4935629;29;19914;-49
2023/03/16 11:05:16;;;;;;;;;;;25.20;99.90;;;;;;4935610;29;19938;-50
2023/03/16 11:07:56;;;;;;;;;;;25.20;99.90;;;;;;4935692;29;19954;-50
2023/03/16 11:10:27;;;;;;;;;;;25.20;99.90;;;;;;4935470;29;19970;-50
2023/03/16 11:12:54;;;;;;;;;;;25.30;99.90;;;;;;4935632;29;20244;-49
2023/03/16 11:15:20;;;;;;;;;;;25.30;99.90;;;;;;4935380;29;19922;-48
2023/03/16 11:17:51;;;;;;;;;;;25.30;99.90;;;;;;4935694;29;19907;-49
2023/03/16 11:20:22;;;;;;;;;;;25.30;99.90;;;;;;4935173;29;19971;-49
2023/03/16 11:22:48;;;;;;;;;;;25.40;99.90;;;;;;4935541;29;19913;-48
2023/03/16 11:25:19;;;;;;;;;;;25.40;99.90;;;;;;4937044;29;19907;-49
2023/03/16 11:27:51;;;;;;;;;;;25.40;99.90;;;;;;4945523;29;19913;-48
2023/03/16 11:30:28;;;;;;;;;;;25.40;99.90;;;;;;4935155;29;19970;-49
2023/03/16 11:32:53;;;;;;;;;;;25.50;99.90;;;;;;4944950;29;19906;-48
2023/03/16 11:35:22;;;;;;;;;;;25.50;99.90;;;;;;4937850;29;20270;-49
2023/03/16 11:38:06;;;;;;;;;;;25.50;99.90;;;;;;4935377;29;19914;-49
2023/03/16 11:41:10;;;;;;;;;;;25.50;99.90;;;;;;4935350;29;19925;-49
2023/03/16 11:43:54;;;;;;;;;;;25.60;99.90;;;;;;4932969;29;19910;-49
2023/03/16 11:46:25;;;;;;;;;;;25.60;99.90;;;;;;4933137;29;19914;-48
2023/03/16 11:48:59;;;;;;;;;;;25.60;99.90;;;;;;4928780;29;19929;-49
2023/03/16 11:51:24;;;;;;;;;;;25.70;99.90;;;;;;4935235;29;19943;-49
2023/03/16 11:53:53;;;;;;;;;;;25.70;99.90;;;;;;4947985;29;19936;-48
2023/03/16 11:56:27;;;;;;;;;;;25.70;99.90;;;;;;4935033;29;19997;-49
2023/03/16 11:59:22;;;;;;;;;;;25.80;99.90;;;;;;4927865;28;20376;-48
2023/03/16 12:01:57;;;;;;;;;;;25.80;99.90;;;;;;4933026;29;19918;-49
2023/03/16 12:04:41;;;;;;;;;;;25.80;99.90;;;;;;4938856;29;19907;-49
2023/03/16 12:07:15;;;;;;;;;;;25.80;99.90;;;;;;4938962;29;20271;-49
2023/03/16 12:09:50;;;;;;;;;;;25.80;99.90;;;;;;4938810;29;19906;-49
2023/03/16 12:12:22;;;;;;;;;;;25.80;99.90;;;;;;4934329;29;20286;-49
2023/03/16 12:14:48;;;;;;;;;;;25.80;99.90;;;;;;4932889;29;19985;-49
2023/03/16 12:17:19;;;;;;;;;;;25.90;99.90;;;;;;4938766;29;19945;-49
2023/03/16 12:19:50;;;;;;;;;;;25.80;99.90;;;;;;4953239;29;19949;-49
2023/03/16 12:22:21;;;;;;;;;;;25.80;99.90;;;;;;4938614;29;19907;-50
2023/03/16 12:24:47;;;;;;;;;;;25.80;99.90;;;;;;4938323;29;20001;-50
2023/03/16 12:27:23;;;;;;;;;;;25.80;99.90;;;;;;4925823;29;20001;-50
2023/03/16 12:29:59;;;;;;;;;;;25.80;97.00;;;;;;4935294;29;20314;-50
2023/03/16 12:32:35;;;;;;;;;;;25.80;94.80;;;;;;4938255;29;19915;-51
2023/03/16 12:35:14;;;;;;;;;;;25.80;98.50;;;;;;4932715;29;19907;-50
2023/03/16 12:37:44;;;;;;;;;;;25.80;99.90;;;;;;4931261;29;19911;-50
2023/03/16 12:40:21;;;;;;;;;;;25.80;96.20;;;;;;4932035;29;19986;-50
2023/03/16 12:42:50;;;;;;;;;;;25.90;94.60;;;;;;4925205;29;19947;-50
2023/03/16 12:45:22;;;;;;;;;;;25.90;93.20;;;;;;4919586;29;20347;-49
2023/03/16 12:47:58;;;;;;;;;;;25.90;91.20;;;;;;4932022;29;19911;-49
2023/03/16 12:50:24;;;;;;;;;;;25.90;89.20;;;;;;4933536;29;20002;-49
2023/03/16 12:52:51;;;;;;;;;;;25.90;92.40;;;;;;4919297;29;19914;-49
2023/03/16 12:55:36;;;;;;;;;;;25.90;96.60;;;;;;4933853;29;20046;-50
2023/03/16 12:58:07;;;;;;;;;;;26.00;99.30;;;;;;4933509;29;20315;-48
2023/03/16 13:00:37;;;;;;;;;;;26.00;99.90;;;;;;4918805;29;19918;-49
2023/03/16 13:03:12;;;;;;;;;;;26.10;99.90;;;;;;4919335;29;19911;-49
2023/03/16 13:05:43;;;;;;;;;;;26.10;99.90;;;;;;4918735;29;19911;-49
2023/03/16 13:08:10;;;;;;;;;;;26.10;99.90;;;;;;4922519;29;19970;-49
2023/03/16 13:10:37;;;;;;;;;;;26.10;99.60;;;;;;4937114;29;19919;-49
2023/03/16 13:13:13;;;;;;;;;;;26.20;99.00;;;;;;4935849;29;19928;-50
2023/03/16 13:15:40;;;;;;;;;;;26.10;98.80;;;;;;4928125;29;19952;-51
2023/03/16 13:18:08;;;;;;;;;;;26.20;98.00;;;;;;4935163;29;20286;-51
2023/03/16 13:20:48;;;;;;;;;;;26.10;99.40;;;;;;4920776;29;19978;-50
2023/03/16 13:23:17;;;;;;;;;;;26.10;99.90;;;;;;4935444;29;20281;-49
2023/03/16 13:25:58;;;;;;;;;;;26.00;99.90;;;;;;4933584;29;19910;-49
2023/03/16 13:28:26;;;;;;;;;;;26.00;99.90;;;;;;4920171;29;19967;-49
2023/03/16 13:30:52;;;;;;;;;;;26.10;99.90;;;;;;4924505;29;20001;-49
2023/03/16 13:33:18;;;;;;;;;;;26.00;99.90;;;;;;4948529;29;20339;-49
2023/03/16 13:35:44;;;;;;;;;;;26.10;99.90;;;;;;4937323;28;19954;-49
2023/03/16 13:38:15;;;;;;;;;;;26.10;99.90;;;;;;4937639;29;20318;-51
2023/03/16 13:40:45;;;;;;;;;;;26.10;99.90;;;;;;4940084;28;20315;-49
2023/03/16 13:43:14;;;;;;;;;;;26.10;99.90;;;;;;4924971;29;21050;-46
2023/03/16 13:45:40;;;;;;;;;;;26.10;99.90;;;;;;4921870;29;19907;-47
2023/03/16 13:48:10;;;;;;;;;;;26.10;99.90;;;;;;4923945;29;20002;-48
2023/03/16 13:50:38;;;;;;;;;;;26.00;99.90;;;;;;4926246;29;19926;-48
2023/03/16 13:53:09;;;;;;;;;;;26.10;99.90;;;;;;4919212;29;19915;-48
2023/03/16 13:55:36;;;;;;;;;;;26.10;99.90;;;;;;4920518;29;20121;-48
2023/03/16 13:58:02;;;;;;;;;;;26.10;99.90;;;;;;4917958;29;20344;-48
2023/03/16 14:00:33;;;;;;;;;;;26.10;99.90;;;;;;4918223;29;19962;-49
2023/03/16 14:03:05;;;;;;;;;;;26.20;99.90;;;;;;4924323;29;19907;-49
2023/03/16 14:05:33;;;;;;;;;;;26.20;99.90;;;;;;4918382;29;19914;-48
2023/03/16 14:08:03;;;;;;;;;;;26.20;99.90;;;;;;4922014;29;19918;-48
2023/03/16 14:10:39;;;;;;;;;;;26.20;99.90;;;;;;4919021;29;19915;-48
2023/03/16 14:13:07;;;;;;;;;;;26.20;99.90;;;;;;4925881;29;19910;-48
2023/03/16 14:15:35;;;;;;;;;;;26.10;99.90;;;;;;4923237;29;20062;-48
2023/03/16 14:18:11;;;;;;;;;;;26.20;99.90;;;;;;4919148;29;20252;-48
2023/03/16 14:20:38;;;;;;;;;;;26.20;99.90;;;;;;4920722;29;19914;-48
2023/03/16 14:23:04;;;;;;;;;;;26.20;93.70;;;;;;4921025;29;19907;-48